Histria Ambra — D5DZ9 — position and weather

sailwx.info

Track history (hours):
 
Tides and Currents Weather Stations Pressure Air Temp Water Temp Dewpoint Dewpoint Depression Visibility Wind Speed Wind Dir Waves Ship Positions

Histria Ambra

Last reported at 2018-Apr-17 20:27 UTC. Time now 2018-Apr-24 22:57 UTC.
Position N 35°54' W 025°57'.

Length 180 m; draft 10.8 m.

Type: Ship (hazmat cat A). MMSI: 636016017.

Date/timePositionNaut miles runAvg speedWind from/ knotsBaromVisibWave heightAir tempDewpointWater temp
2018-Apr-17 20:27N 35°54' W 025°57'3 6.3
2018-Apr-17 19:59N 35°54' W 025°53'3 6.1
2018-Apr-17 19:30N 35°54' W 025°49'3 6.4
2018-Apr-17 19:00N 35°54' W 025°45'3 6.3
2018-Apr-17 18:30N 35°55' W 025°41'3 6.3
2018-Apr-17 18:00N 35°55' W 025°38'3 6.2
2018-Apr-17 17:30N 35°55' W 025°34'3 6.2
2018-Apr-17 17:00N 35°55' W 025°30'3 6.3
2018-Apr-17 16:30N 35°54' W 025°26'3 6.4
2018-Apr-17 16:00N 35°54' W 025°22'3 6.6
2018-Apr-17 15:30N 35°54' W 025°18'3 6.4
2018-Apr-17 15:00N 35°54' W 025°14'3 6.4
2018-Apr-17 14:30N 35°54' W 025°10'4 7.4
2018-Apr-17 14:00N 35°54' W 025°06'4 7.3
2018-Apr-17 13:30N 35°54' W 025°01'4 7.4
2018-Apr-17 13:00N 35°54' W 024°56'4 7.3
2018-Apr-17 12:30N 35°54' W 024°52'4 7.5
2018-Apr-17 12:00N 35°54' W 024°47'4 7.6
2018-Apr-17 11:30N 35°54' W 024°43'4 8.0
2018-Apr-17 11:01N 35°54' W 024°38'4 8.0
2018-Apr-17 10:30N 35°54' W 024°33'4 8.6
2018-Apr-17 10:00N 35°54' W 024°27'  
2018-Apr-13 08:54N 35°58' W 005°36'3 8.8
2018-Apr-13 08:30N 35°59' W 005°32'4 8.4
2018-Apr-13 08:00N 36°00' W 005°27'4 7.3
2018-Apr-13 07:31N 36°03' W 005°24'3 2.1
2018-Apr-13 06:09N 36°06' W 005°25'0 0.3
2018-Apr-13 05:54N 36°06' W 005°25'0 0.0
2018-Apr-13 05:21N 36°06' W 005°25'0 0.1
2018-Apr-13 04:57N 36°06' W 005°25'0 0.1
2018-Apr-13 04:30N 36°06' W 005°25'0 0.0
2018-Apr-13 03:54N 36°06' W 005°25'0 0.0
2018-Apr-13 03:27N 36°06' W 005°25'0 0.1
2018-Apr-13 03:00N 36°06' W 005°25'0 0.1
2018-Apr-13 02:03N 36°06' W 005°25'0 0.1
2018-Apr-13 02:00N 36°06' W 005°25'0 0.1
2018-Apr-13 01:30N 36°06' W 005°25'0 0.1
2018-Apr-13 00:57N 36°06' W 005°25'0 0.0
2018-Apr-13 00:27N 36°06' W 005°25'0 0.1
2018-Apr-12 23:57N 36°06' W 005°25'0 0.0
2018-Apr-12 23:27N 36°06' W 005°25'0 0.1
2018-Apr-12 22:57N 36°06' W 005°25'0 0.1
2018-Apr-12 22:27N 36°06' W 005°25'0 0.3
2018-Apr-12 22:00N 36°06' W 005°25'0 0.4
2018-Apr-12 21:27N 36°06' W 005°25'0 0.1
2018-Apr-12 21:00N 36°06' W 005°25'0 0.0
2018-Apr-12 20:30N 36°06' W 005°25'0 0.0
2018-Apr-12 20:00N 36°06' W 005°25'0 0.1
2018-Apr-12 19:30N 36°06' W 005°25'0 0.0
2018-Apr-12 18:57N 36°06' W 005°25'0 0.0
2018-Apr-12 18:27N 36°06' W 005°25'0 0.0
2018-Apr-12 17:57N 36°06' W 005°25'0 0.0
2018-Apr-12 15:18N 36°06' W 005°25'0 0.2
2018-Apr-12 14:57N 36°06' W 005°25'0 0.0
2018-Apr-12 13:30N 36°06' W 005°25'0 0.0
2018-Apr-12 07:45N 36°06' W 005°25'0 0.4
2018-Apr-12 07:27N 36°06' W 005°25'0 0.1
2018-Apr-12 06:09N 36°06' W 005°25'0 0.1
2018-Apr-12 05:51N 36°06' W 005°25'0 0.1
2018-Apr-12 05:21N 36°06' W 005°25'0 0.0
2018-Apr-12 04:57N 36°06' W 005°25'0 0.1
2018-Apr-12 04:27N 36°06' W 005°25'0 0.0
2018-Apr-12 03:57N 36°06' W 005°25'0 0.1
2018-Apr-12 02:39N 36°06' W 005°25'0 0.0
2018-Apr-12 02:15N 36°06' W 005°25'0 0.1
2018-Apr-12 01:15N 36°06' W 005°25'0 0.1
2018-Apr-12 00:57N 36°06' W 005°25'0 0.1
2018-Apr-12 00:27N 36°06' W 005°25'0 0.2
2018-Apr-11 23:57N 36°06' W 005°25'0 0.0
2018-Apr-11 23:21N 36°06' W 005°25'0 0.0
2018-Apr-11 22:51N 36°06' W 005°25'0 0.1
2018-Apr-11 22:30N 36°06' W 005°25'0 0.0
2018-Apr-11 21:47N 36°06' W 005°25'0 0.0
2018-Apr-11 21:25N 36°06' W 005°25'0 0.1
2018-Apr-11 21:00N 36°06' W 005°25'0 0.1
2018-Apr-11 20:30N 36°06' W 005°25'0 0.1
2018-Apr-11 19:59N 36°06' W 005°25'0 0.2
2018-Apr-11 19:30N 36°06' W 005°25'0 0.0
2018-Apr-11 18:59N 36°06' W 005°25'0 0.0
2018-Apr-11 18:29N 36°06' W 005°25'0 0.1
2018-Apr-11 18:00N 36°06' W 005°25'2 4.6
2018-Apr-11 17:30N 36°05' W 005°22'4 6.9
2018-Apr-11 17:00N 36°03' W 005°19'  
2018-Apr-07 21:44N 36°58' E 012°53'514.2
2018-Apr-07 21:24N 36°56' E 012°58'  
Track history (hours):
 
Tides and Currents Weather Stations Pressure Air Temp Water Temp Dewpoint Dewpoint Depression Visibility Wind Speed Wind Dir Waves Ship Positions

Histria Ambra

Last reported at 2018-Apr-17 20:27 UTC. Time now 2018-Apr-24 22:57 UTC.
Position N 35°54' W 025°57'.

Length 180 m; draft 10.8 m.

Type: Ship (hazmat cat A). MMSI: 636016017.

Date/timePositionNaut miles runAvg speedWind from/ knotsBaromVisibWave heightAir tempDewpointWater temp
2018-Apr-17 20:27N 35°54' W 025°57'3 6.3
2018-Apr-17 19:59N 35°54' W 025°53'3 6.1
2018-Apr-17 19:30N 35°54' W 025°49'3 6.4
2018-Apr-17 19:00N 35°54' W 025°45'3 6.3
2018-Apr-17 18:30N 35°55' W 025°41'3 6.3
2018-Apr-17 18:00N 35°55' W 025°38'3 6.2
2018-Apr-17 17:30N 35°55' W 025°34'3 6.2
2018-Apr-17 17:00N 35°55' W 025°30'3 6.3
2018-Apr-17 16:30N 35°54' W 025°26'3 6.4
2018-Apr-17 16:00N 35°54' W 025°22'3 6.6
2018-Apr-17 15:30N 35°54' W 025°18'3 6.4
2018-Apr-17 15:00N 35°54' W 025°14'3 6.4
2018-Apr-17 14:30N 35°54' W 025°10'4 7.4
2018-Apr-17 14:00N 35°54' W 025°06'4 7.3
2018-Apr-17 13:30N 35°54' W 025°01'4 7.4
2018-Apr-17 13:00N 35°54' W 024°56'4 7.3
2018-Apr-17 12:30N 35°54' W 024°52'4 7.5
2018-Apr-17 12:00N 35°54' W 024°47'4 7.6
2018-Apr-17 11:30N 35°54' W 024°43'4 8.0
2018-Apr-17 11:01N 35°54' W 024°38'4 8.0
2018-Apr-17 10:30N 35°54' W 024°33'4 8.6
2018-Apr-17 10:00N 35°54' W 024°27'  
2018-Apr-13 08:54N 35°58' W 005°36'3 8.8
2018-Apr-13 08:30N 35°59' W 005°32'4 8.4
2018-Apr-13 08:00N 36°00' W 005°27'4 7.3
2018-Apr-13 07:31N 36°03' W 005°24'3 2.1
2018-Apr-13 06:09N 36°06' W 005°25'0 0.3
2018-Apr-13 05:54N 36°06' W 005°25'0 0.0
2018-Apr-13 05:21N 36°06' W 005°25'0 0.1
2018-Apr-13 04:57N 36°06' W 005°25'0 0.1
2018-Apr-13 04:30N 36°06' W 005°25'0 0.0
2018-Apr-13 03:54N 36°06' W 005°25'0 0.0
2018-Apr-13 03:27N 36°06' W 005°25'0 0.1
2018-Apr-13 03:00N 36°06' W 005°25'0 0.1
2018-Apr-13 02:03N 36°06' W 005°25'0 0.1
2018-Apr-13 02:00N 36°06' W 005°25'0 0.1
2018-Apr-13 01:30N 36°06' W 005°25'0 0.1
2018-Apr-13 00:57N 36°06' W 005°25'0 0.0
2018-Apr-13 00:27N 36°06' W 005°25'0 0.1
2018-Apr-12 23:57N 36°06' W 005°25'0 0.0
2018-Apr-12 23:27N 36°06' W 005°25'0 0.1
2018-Apr-12 22:57N 36°06' W 005°25'0 0.1
2018-Apr-12 22:27N 36°06' W 005°25'0 0.3
2018-Apr-12 22:00N 36°06' W 005°25'0 0.4
2018-Apr-12 21:27N 36°06' W 005°25'0 0.1
2018-Apr-12 21:00N 36°06' W 005°25'0 0.0
2018-Apr-12 20:30N 36°06' W 005°25'0 0.0
2018-Apr-12 20:00N 36°06' W 005°25'0 0.1
2018-Apr-12 19:30N 36°06' W 005°25'0 0.0
2018-Apr-12 18:57N 36°06' W 005°25'0 0.0
2018-Apr-12 18:27N 36°06' W 005°25'0 0.0
2018-Apr-12 17:57N 36°06' W 005°25'0 0.0
2018-Apr-12 15:18N 36°06' W 005°25'0 0.2
2018-Apr-12 14:57N 36°06' W 005°25'0 0.0
2018-Apr-12 13:30N 36°06' W 005°25'0 0.0
2018-Apr-12 07:45N 36°06' W 005°25'0 0.4
2018-Apr-12 07:27N 36°06' W 005°25'0 0.1
2018-Apr-12 06:09N 36°06' W 005°25'0 0.1
2018-Apr-12 05:51N 36°06' W 005°25'0 0.1
2018-Apr-12 05:21N 36°06' W 005°25'0 0.0
2018-Apr-12 04:57N 36°06' W 005°25'0 0.1
2018-Apr-12 04:27N 36°06' W 005°25'0 0.0
2018-Apr-12 03:57N 36°06' W 005°25'0 0.1
2018-Apr-12 02:39N 36°06' W 005°25'0 0.0
2018-Apr-12 02:15N 36°06' W 005°25'0 0.1
2018-Apr-12 01:15N 36°06' W 005°25'0 0.1
2018-Apr-12 00:57N 36°06' W 005°25'0 0.1
2018-Apr-12 00:27N 36°06' W 005°25'0 0.2
2018-Apr-11 23:57N 36°06' W 005°25'0 0.0
2018-Apr-11 23:21N 36°06' W 005°25'0 0.0
2018-Apr-11 22:51N 36°06' W 005°25'0 0.1
2018-Apr-11 22:30N 36°06' W 005°25'0 0.0
2018-Apr-11 21:47N 36°06' W 005°25'0 0.0
2018-Apr-11 21:25N 36°06' W 005°25'0 0.1
2018-Apr-11 21:00N 36°06' W 005°25'0 0.1
2018-Apr-11 20:30N 36°06' W 005°25'0 0.1
2018-Apr-11 19:59N 36°06' W 005°25'0 0.2
2018-Apr-11 19:30N 36°06' W 005°25'0 0.0
2018-Apr-11 18:59N 36°06' W 005°25'0 0.0
2018-Apr-11 18:29N 36°06' W 005°25'0 0.1
2018-Apr-11 18:00N 36°06' W 005°25'2 4.6
2018-Apr-11 17:30N 36°05' W 005°22'4 6.9
2018-Apr-11 17:00N 36°03' W 005°19'  
2018-Apr-07 21:44N 36°58' E 012°53'514.2
2018-Apr-07 21:24N 36°56' E 012°58'  

Dump ship's entire track history